Skip Navigation LinksHome page > Weather > Current weather Skip Navigation Links

Current Weather

Central Park, New York

For information only: do not use for flight planning or navigation.
Latest weather
Observation time Saturday, August 19, 2017 12:51 AM EDT
Local time Saturday, August 19, 2017 1:16 AM EDT
Flight conditions Visual Meteorological Conditions
Winds
Wind direction West-Southwest (250°)
Wind speed 5 mph
Visibility 10 mi.
Sky condition
Ceiling unlimited
Sky clear
Temperature 74°F
Dewpoint 72°F
Altimeter 29.82 in.Hg
Derived measurements
Relative humidity 94%
Density altitude 1598 ft.
Sea-level pressure 29.79 in.Hg
Climate data
Temperature minimum, last 24 hours 73°F
Temperature maximum, last 24 hours 82°F
Remarks
Fully automated report.
Automated weather observing station with precipitation discriminator.
METAR KNYC 190451Z AUTO 25004KT 10SM CLR 23/22 A2982 RMK AO2 SLP088 T02330222 402780228

Settings

Location code

InnerDrive.Weather 4.0.6144.1 Release CLR 4.0.30319.36366
Copyright ©2015 Inner Drive Technology. All rights reserved. Portions Copyright ©1986-2015 David Braverman.

Find weather

Site navigation


Skip Navigation Links

Place info

Page info

PayPal - The safer, easier way to pay online!

Return home.

Copyright ©2017 Inner Drive Technology. Purveyors of fine, hand-crafted computer software. Page printed 2017-08-19T05:16:29 UTC.